Time;durP1;ratioP1;P1;durP2;ratioP2;P2;SDS_P1;SDS_P2;PMS_P1;PMS_P2;Temp;Humidity;BMP_temperature;BMP_pressure;BME280_temperature;BME280_humidity;BME280_pressure;Samples;Min_cycle;Max_cycle;Signal;HPM_P1;HPM_P2
2022/01/25 04:50:59;;;;;;;26.08;12.15;;;0.10;99.90;;;;;;4937140;23;20063;-84
2022/01/25 04:53:36;;;;;;;22.70;12.70;;;0.10;99.90;;;;;;4918505;29;20517;-85
2022/01/25 04:56:11;;;;;;;22.70;12.38;;;0.20;99.90;;;;;;4918088;29;20044;-85
2022/01/25 04:58:44;;;;;;;22.88;12.05;;;0.20;99.90;;;;;;4906191;29;20055;-82
2022/01/25 05:01:12;;;;;;;21.85;11.68;;;0.20;99.90;;;;;;4918759;29;20111;-86
2022/01/25 05:03:53;;;;;;;22.23;11.93;;;0.20;99.90;;;;;;4918475;29;20103;-85
2022/01/25 05:06:23;;;;;;;22.85;12.35;;;0.20;99.90;;;;;;4911047;29;20062;-85
2022/01/25 05:08:53;;;;;;;22.88;11.77;;;0.20;99.90;;;;;;4918492;29;20116;-83
2022/01/25 05:11:27;;;;;;;22.77;12.38;;;0.30;99.90;;;;;;4918592;29;20051;-84
2022/01/25 05:14:10;;;;;;;21.83;12.48;;;0.30;99.90;;;;;;4918391;29;20068;-86
2022/01/25 05:16:47;;;;;;;23.63;12.30;;;0.30;99.90;;;;;;4905602;29;20075;-83
2022/01/25 05:19:25;;;;;;;22.67;12.30;;;0.40;99.90;;;;;;4917850;29;20570;-84
2022/01/25 05:22:06;;;;;;;22.70;12.45;;;0.40;99.90;;;;;;4918156;29;20133;-85
2022/01/25 05:24:35;;;;;;;22.58;12.15;;;0.40;99.90;;;;;;4922117;29;20047;-86
2022/01/25 05:27:03;;;;;;;23.17;12.55;;;0.40;99.90;;;;;;4915579;29;20075;-84
2022/01/25 05:29:30;;;;;;;25.42;13.18;;;0.40;99.90;;;;;;4905903;29;20095;-83
2022/01/25 05:31:57;;;;;;;22.80;12.48;;;0.40;99.90;;;;;;4917391;29;20626;-81
2022/01/25 05:34:25;;;;;;;20.83;11.95;;;0.40;99.90;;;;;;4917417;29;20123;-81
2022/01/25 05:36:54;;;;;;;20.77;11.13;;;0.40;99.90;;;;;;4917405;29;20052;-81
2022/01/25 05:39:26;;;;;;;22.35;12.07;;;0.40;99.90;;;;;;4917822;29;20079;-82
2022/01/25 05:41:57;;;;;;;22.13;11.25;;;0.40;99.90;;;;;;4917674;29;20482;-81
2022/01/25 05:44:38;;;;;;;21.77;11.93;;;0.40;99.90;;;;;;4917817;29;20464;-82
2022/01/25 05:47:07;;;;;;;21.63;11.18;;;0.30;99.90;;;;;;4917772;29;20059;-82
2022/01/25 05:49:37;;;;;;;22.33;11.70;;;0.30;99.90;;;;;;4917550;29;20074;-82
2022/01/25 05:52:09;;;;;;;21.70;11.73;;;0.30;99.90;;;;;;4917554;29;20090;-82
2022/01/25 05:54:37;;;;;;;22.55;11.88;;;0.30;99.90;;;;;;4917629;29;20044;-82
2022/01/25 05:57:05;;;;;;;22.73;12.10;;;0.30;99.90;;;;;;4917141;29;20143;-82
2022/01/25 05:59:33;;;;;;;21.85;10.98;;;0.30;99.90;;;;;;4917334;29;20131;-81
2022/01/25 06:02:00;;;;;;;19.92;10.50;;;0.30;99.90;;;;;;4901738;29;20091;-81
2022/01/25 06:04:27;;;;;;;21.90;10.98;;;0.30;99.90;;;;;;4898337;29;20521;-82
2022/01/25 06:06:55;;;;;;;21.42;11.02;;;0.30;99.90;;;;;;4898492;29;20139;-82
2022/01/25 06:09:26;;;;;;;22.13;11.25;;;0.30;99.90;;;;;;4898320;29;20475;-82
2022/01/25 06:11:54;;;;;;;20.35;11.15;;;0.20;99.90;;;;;;4898288;29;20060;-82
2022/01/25 06:14:22;;;;;;;23.63;11.95;;;0.20;99.90;;;;;;4898023;29;20131;-82
2022/01/25 06:16:49;;;;;;;23.05;11.70;;;0.20;99.90;;;;;;4897553;29;20577;-79
2022/01/25 06:19:16;;;;;;;20.63;11.52;;;0.20;99.90;;;;;;4898179;29;20135;-82
2022/01/25 06:21:43;;;;;;;22.08;12.30;;;0.20;99.90;;;;;;4898269;29;20479;-81
2022/01/25 06:24:10;;;;;;;23.67;11.82;;;0.20;99.90;;;;;;4898048;29;20463;-82
2022/01/25 06:26:38;;;;;;;26.27;13.48;;;0.20;99.90;;;;;;4898007;29;20147;-82
2022/01/25 06:29:06;;;;;;;24.58;12.82;;;0.20;99.90;;;;;;4898305;29;20060;-81
2022/01/25 06:31:33;;;;;;;21.45;11.63;;;0.20;99.90;;;;;;4898023;29;20091;-82
2022/01/25 06:34:02;;;;;;;23.27;12.23;;;0.10;99.90;;;;;;4897878;29;20052;-81
2022/01/25 06:36:30;;;;;;;22.10;12.38;;;0.10;99.90;;;;;;4898107;29;20418;-81
2022/01/25 06:38:57;;;;;;;23.13;11.68;;;0.10;99.90;;;;;;4898079;29;20134;-81
2022/01/25 06:41:26;;;;;;;20.65;11.25;;;0.00;99.90;;;;;;4898302;29;20152;-80
2022/01/25 06:43:57;;;;;;;21.55;11.57;;;0.00;99.90;;;;;;4897993;29;20049;-80
2022/01/25 06:46:24;;;;;;;23.02;11.45;;;-0.10;99.90;;;;;;4898191;29;20052;-81
2022/01/25 06:48:51;;;;;;;21.92;11.80;;;-0.10;99.90;;;;;;4897869;29;20112;-82
2022/01/25 06:51:18;;;;;;;21.05;11.55;;;-0.20;99.90;;;;;;4897859;29;20487;-80
2022/01/25 06:53:45;;;;;;;23.20;12.48;;;-0.20;99.90;;;;;;4897912;29;20052;-81
2022/01/25 06:56:12;;;;;;;21.35;10.93;;;-0.10;99.90;;;;;;4897815;29;20140;-82
2022/01/25 06:58:41;;;;;;;24.55;12.25;;;-0.20;99.90;;;;;;4897608;29;20413;-82
2022/01/25 07:01:09;;;;;;;19.70;10.55;;;-0.20;99.90;;;;;;4897585;29;20064;-81
2022/01/25 07:03:36;;;;;;;21.20;11.50;;;-0.20;99.90;;;;;;4897684;29;20127;-81
2022/01/25 07:06:03;;;;;;;21.85;11.57;;;-0.10;99.90;;;;;;4897681;29;20143;-82
2022/01/25 07:08:31;;;;;;;22.15;12.00;;;-0.10;99.90;;;;;;4897660;29;20561;-81
2022/01/25 07:10:58;;;;;;;22.10;11.73;;;-0.10;99.90;;;;;;4897703;29;20128;-81
2022/01/25 07:13:25;;;;;;;23.75;12.70;;;-0.10;99.90;;;;;;4897696;29;20459;-82
2022/01/25 07:15:52;;;;;;;24.85;12.52;;;-0.10;99.90;;;;;;4897848;29;20060;-80
2022/01/25 07:18:21;;;;;;;22.23;11.45;;;-0.10;99.90;;;;;;4897444;29;20413;-82
2022/01/25 07:20:48;;;;;;;21.75;11.75;;;-0.10;99.90;;;;;;4897558;29;20057;-82
2022/01/25 07:23:15;;;;;;;22.30;12.63;;;-0.10;99.90;;;;;;4897691;29;20140;-82
2022/01/25 07:25:43;;;;;;;20.23;11.98;;;-0.10;99.90;;;;;;4897479;29;20069;-82
2022/01/25 07:28:10;;;;;;;22.65;11.85;;;-0.10;99.90;;;;;;4901138;29;20048;-82
2022/01/25 07:30:37;;;;;;;21.63;12.27;;;0.00;99.90;;;;;;4901063;29;20498;-82
2022/01/25 07:33:05;;;;;;;20.00;11.30;;;0.00;99.90;;;;;;4901048;29;20140;-82
2022/01/25 07:35:35;;;;;;;23.10;12.68;;;0.00;99.90;;;;;;4901085;29;20059;-81
2022/01/25 07:38:03;;;;;;;24.70;12.40;;;0.00;99.90;;;;;;4900947;29;20237;-82
2022/01/25 07:40:33;;;;;;;25.08;13.20;;;0.00;99.90;;;;;;4901040;29;20127;-82
2022/01/25 07:43:00;;;;;;;24.60;13.32;;;0.10;99.90;;;;;;4901221;29;20139;-82
2022/01/25 07:45:34;;;;;;;24.73;13.02;;;0.10;99.90;;;;;;4900884;29;20084;-82
2022/01/25 07:48:03;;;;;;;25.73;13.52;;;0.10;99.90;;;;;;4899866;29;20080;-81
2022/01/25 07:50:31;;;;;;;24.85;13.07;;;0.00;99.90;;;;;;4900512;29;20147;-81
2022/01/25 07:52:59;;;;;;;26.08;12.73;;;0.10;99.90;;;;;;4900807;29;20466;-82
2022/01/25 07:55:27;;;;;;;27.13;13.65;;;0.10;99.90;;;;;;4901091;29;20402;-82
2022/01/25 07:57:54;;;;;;;26.83;13.90;;;0.10;99.90;;;;;;4900440;29;20541;-82
2022/01/25 08:00:22;;;;;;;25.35;13.73;;;0.10;99.90;;;;;;4900709;29;20479;-81
2022/01/25 08:02:51;;;;;;;23.65;12.88;;;0.10;99.90;;;;;;4900502;29;20183;-82
2022/01/25 08:05:24;;;;;;;24.67;13.05;;;0.00;99.90;;;;;;4900790;29;20108;-82
2022/01/25 08:07:51;;;;;;;24.67;12.80;;;0.00;99.90;;;;;;4902561;29;20505;-82
2022/01/25 08:10:20;;;;;;;22.73;12.60;;;0.00;99.90;;;;;;4900407;29;20140;-82
2022/01/25 08:12:48;;;;;;;25.63;12.77;;;0.00;99.90;;;;;;4900493;29;20080;-82
2022/01/25 08:15:16;;;;;;;22.58;11.98;;;0.10;99.90;;;;;;4900445;29;20516;-81
2022/01/25 08:17:44;;;;;;;21.88;12.07;;;0.10;99.90;;;;;;4900117;29;20048;-82
2022/01/25 08:20:15;;;;;;;24.02;13.45;;;0.20;99.90;;;;;;4900092;29;20135;-82
2022/01/25 08:22:44;;;;;;;24.05;11.48;;;0.20;99.90;;;;;;4900056;29;20143;-82
2022/01/25 08:25:12;;;;;;;20.05;11.30;;;0.30;99.90;;;;;;4900078;29;20056;-82
2022/01/25 08:27:40;;;;;;;20.85;10.98;;;0.30;99.90;;;;;;4900257;29;20056;-82
2022/01/25 08:30:09;;;;;;;25.50;12.93;;;0.40;99.90;;;;;;4900228;29;20135;-82
2022/01/25 08:32:36;;;;;;;24.58;12.15;;;0.50;99.90;;;;;;4900108;29;20147;-82
2022/01/25 08:35:03;;;;;;;28.70;13.65;;;0.50;99.90;;;;;;4900203;29;20137;-82
2022/01/25 08:37:31;;;;;;;22.90;12.48;;;0.50;99.90;;;;;;4899592;29;20136;-82
2022/01/25 08:39:58;;;;;;;21.50;11.25;;;0.50;99.90;;;;;;4899428;29;20168;-82
2022/01/25 08:42:25;;;;;;;21.70;10.88;;;0.60;99.90;;;;;;4899910;29;20056;-82
2022/01/25 08:44:53;;;;;;;22.88;11.73;;;0.60;99.90;;;;;;4899831;29;20147;-82
2022/01/25 08:47:21;;;;;;;20.60;12.27;;;0.60;99.90;;;;;;4899725;29;20131;-81
2022/01/25 08:49:48;;;;;;;21.10;11.45;;;0.60;99.90;;;;;;4899550;29;20056;-81
2022/01/25 08:52:15;;;;;;;24.38;13.23;;;0.70;99.90;;;;;;4899760;29;20156;-81
2022/01/25 08:54:42;;;;;;;25.15;13.13;;;0.80;99.90;;;;;;4899534;29;20474;-81
2022/01/25 08:57:09;;;;;;;25.60;12.90;;;0.80;99.90;;;;;;4899714;29;20128;-81
2022/01/25 08:59:37;;;;;;;24.45;13.43;;;0.90;99.90;;;;;;4899451;29;20151;-81
2022/01/25 09:02:06;;;;;;;27.50;14.55;;;0.90;99.90;;;;;;4899548;29;20100;-80
2022/01/25 09:04:33;;;;;;;27.10;14.27;;;1.00;99.90;;;;;;4899512;29;20063;-82
2022/01/25 09:07:00;;;;;;;28.50;15.25;;;0.90;99.90;;;;;;4899106;29;20473;-82
2022/01/25 09:09:27;;;;;;;27.25;15.30;;;0.90;99.90;;;;;;4899322;29;20131;-82
2022/01/25 09:11:56;;;;;;;26.42;14.82;;;0.90;99.90;;;;;;4899399;29;20049;-82
2022/01/25 09:14:24;;;;;;;28.15;15.23;;;0.90;99.90;;;;;;4899334;29;20048;-82
2022/01/25 09:16:51;;;;;;;28.20;15.63;;;0.90;99.90;;;;;;4899334;29;20187;-82
2022/01/25 09:19:20;;;;;;;25.70;14.30;;;0.90;99.90;;;;;;4899095;29;20060;-82
2022/01/25 09:21:47;;;;;;;27.25;14.80;;;0.90;99.90;;;;;;4899276;29;20091;-81
2022/01/25 09:24:14;;;;;;;26.70;14.35;;;0.90;99.90;;;;;;4899109;29;20135;-82
2022/01/25 09:26:41;;;;;;;25.65;14.10;;;1.00;99.90;;;;;;4899165;29;20083;-82
2022/01/25 09:29:08;;;;;;;29.90;14.48;;;1.00;99.90;;;;;;4899180;29;20060;-82
2022/01/25 09:31:35;;;;;;;25.10;14.35;;;1.10;99.90;;;;;;4899159;29;20139;-80
2022/01/25 09:34:02;;;;;;;28.38;14.13;;;1.20;99.90;;;;;;4898935;29;20099;-80
2022/01/25 09:36:31;;;;;;;24.52;13.40;;;1.20;99.90;;;;;;4898888;29;20140;-81
2022/01/25 09:38:58;;;;;;;24.63;13.68;;;1.30;99.90;;;;;;4898678;29;20072;-81
2022/01/25 09:41:27;;;;;;;22.42;13.25;;;1.40;99.90;;;;;;4898852;29;20052;-81
2022/01/25 09:43:54;;;;;;;25.10;14.10;;;1.50;99.90;;;;;;4898956;29;20102;-81
2022/01/25 09:46:21;;;;;;;24.65;13.35;;;1.60;99.90;;;;;;4898786;29;20124;-81
2022/01/25 09:48:49;;;;;;;26.45;13.68;;;1.60;99.90;;;;;;4898433;29;20082;-80
2022/01/25 09:51:20;;;;;;;24.20;12.85;;;1.70;99.90;;;;;;4898976;29;20132;-80
2022/01/25 09:53:48;;;;;;;26.35;14.55;;;1.80;99.90;;;;;;4898577;29;20092;-81
2022/01/25 09:56:16;;;;;;;24.70;13.57;;;1.80;99.90;;;;;;4898579;29;20084;-81
2022/01/25 09:58:44;;;;;;;24.50;12.35;;;1.80;99.90;;;;;;4898236;29;20148;-81
2022/01/25 10:01:12;;;;;;;24.67;13.00;;;1.90;99.90;;;;;;4898328;29;20529;-80
2022/01/25 10:03:42;;;;;;;26.95;14.43;;;2.00;99.90;;;;;;4898601;29;20109;-80
2022/01/25 10:06:15;;;;;;;26.27;13.88;;;2.00;99.90;;;;;;4898442;29;20131;-82
2022/01/25 10:08:43;;;;;;;24.23;13.52;;;2.10;99.90;;;;;;4898422;29;20063;-80
2022/01/25 10:11:14;;;;;;;25.95;14.38;;;2.10;99.90;;;;;;4898547;29;20048;-80
2022/01/25 10:13:44;;;;;;;23.02;13.45;;;2.10;99.90;;;;;;4898480;29;20139;-81
2022/01/25 10:16:14;;;;;;;24.10;12.63;;;2.10;99.90;;;;;;4898146;29;20053;-80
2022/01/25 10:18:45;;;;;;;26.88;13.55;;;2.20;99.90;;;;;;4898135;29;20192;-81
2022/01/25 10:21:17;;;;;;;24.00;12.85;;;2.20;99.90;;;;;;4898065;29;20148;-81
2022/01/25 10:24:06;;;;;;;24.48;13.85;;;2.30;99.90;;;;;;4898069;29;20399;-82
2022/01/25 10:26:41;;;;;;;26.70;13.57;;;2.30;99.90;;;;;;4898310;29;20143;-81
2022/01/25 10:29:10;;;;;;;21.63;12.13;;;2.40;99.90;;;;;;4898064;29;20048;-80
2022/01/25 10:31:40;;;;;;;22.23;12.43;;;2.50;99.90;;;;;;4897927;29;20062;-80
2022/01/25 10:34:10;;;;;;;23.52;12.98;;;2.50;99.90;;;;;;4897968;29;20476;-81
2022/01/25 10:36:46;;;;;;;22.05;12.10;;;2.60;99.90;;;;;;4897961;29;20104;-81
2022/01/25 10:39:14;;;;;;;25.75;13.52;;;2.70;99.90;;;;;;4897987;29;20148;-80
2022/01/25 10:41:43;;;;;;;22.05;12.60;;;2.80;99.90;;;;;;4897665;29;20132;-81
2022/01/25 10:44:13;;;;;;;22.08;11.43;;;2.80;99.90;;;;;;4897307;29;20052;-81
2022/01/25 10:46:41;;;;;;;21.40;12.38;;;2.80;99.90;;;;;;4897828;29;20140;-80
2022/01/25 10:49:12;;;;;;;24.25;12.73;;;2.90;99.90;;;;;;4897523;29;20147;-81
2022/01/25 10:51:42;;;;;;;22.35;12.40;;;3.00;99.90;;;;;;4897834;29;20083;-80
2022/01/25 10:54:15;;;;;;;22.02;12.55;;;3.00;99.90;;;;;;4897752;29;20057;-81
2022/01/25 10:56:53;;;;;;;23.60;12.45;;;3.10;99.90;;;;;;4897726;29;20391;-81
2022/01/25 10:59:25;;;;;;;23.45;12.93;;;3.10;99.90;;;;;;4896987;29;20459;-80
2022/01/25 11:01:55;;;;;;;21.75;12.40;;;3.20;99.90;;;;;;4899333;29;20139;-80
2022/01/25 11:04:25;;;;;;;19.83;11.40;;;3.20;99.90;;;;;;4901671;29;20048;-81
2022/01/25 11:06:58;;;;;;;22.35;12.07;;;3.30;99.90;;;;;;4901582;29;20478;-79
2022/01/25 11:09:29;;;;;;;21.10;11.68;;;3.40;99.70;;;;;;4917129;29;20139;-79
2022/01/25 11:11:58;;;;;;;21.42;11.80;;;3.40;99.30;;;;;;4901292;29;20131;-79
2022/01/25 11:17:10;;;;;;;19.55;11.50;;;3.40;99.80;;;;;;4901415;29;20059;-78
2022/01/25 11:19:37;;;;;;;23.60;12.40;;;3.50;99.70;;;;;;4901406;29;20062;-77
2022/01/25 11:22:05;;;;;;;18.38;11.60;;;3.50;99.60;;;;;;4906041;29;20139;-76
2022/01/25 11:24:34;;;;;;;19.95;11.48;;;3.60;99.70;;;;;;4911191;29;20135;-76
2022/01/25 11:27:06;;;;;;;21.17;11.88;;;3.70;99.70;;;;;;4901435;29;20132;-77
2022/01/25 11:29:35;;;;;;;20.75;11.57;;;3.80;99.70;;;;;;4901183;29;20056;-76
2022/01/25 11:32:08;;;;;;;20.70;11.73;;;4.00;99.90;;;;;;4901105;29;20509;-76
2022/01/25 11:34:38;;;;;;;20.80;11.25;;;4.10;99.60;;;;;;4901259;29;20060;-78
2022/01/25 11:37:09;;;;;;;20.17;11.25;;;4.20;99.50;;;;;;4912647;29;20160;-77
2022/01/25 11:39:41;;;;;;;19.08;10.55;;;4.30;98.80;;;;;;4919400;29;20056;-77
2022/01/25 11:42:12;;;;;;;18.35;10.35;;;4.40;98.60;;;;;;4917252;29;20056;-77
2022/01/25 11:44:49;;;;;;;18.13;10.40;;;4.50;98.30;;;;;;4901001;29;20555;-77
2022/01/25 11:47:20;;;;;;;20.98;10.90;;;4.50;98.00;;;;;;4900704;29;20045;-76
2022/01/25 11:49:54;;;;;;;20.30;11.32;;;4.60;97.90;;;;;;4909992;29;20131;-79
2022/01/25 11:52:24;;;;;;;17.75;10.38;;;4.80;97.80;;;;;;4919221;29;20131;-78
2022/01/25 11:54:53;;;;;;;19.35;10.75;;;4.80;97.70;;;;;;4919480;29;20052;-78
2022/01/25 11:57:27;;;;;;;19.83;11.15;;;4.90;97.40;;;;;;4919904;29;20143;-79
2022/01/25 11:59:55;;;;;;;20.27;10.77;;;5.00;97.30;;;;;;4919488;29;20135;-82
2022/01/25 12:02:44;;;;;;;19.13;11.25;;;5.10;97.10;;;;;;4919519;29;20151;-82
2022/01/25 12:05:14;;;;;;;18.65;11.25;;;5.10;96.90;;;;;;4919101;29;20581;-81
2022/01/25 12:08:06;;;;;;;20.83;11.57;;;5.10;96.90;;;;;;4918770;29;20052;-82
2022/01/25 12:10:39;;;;;;;18.52;10.77;;;5.20;96.80;;;;;;4919471;29;20142;-82
2022/01/25 12:13:30;;;;;;;20.27;10.95;;;5.30;96.80;;;;;;4919294;29;20139;-82
2022/01/25 12:16:24;;;;;;;22.05;11.68;;;5.40;96.30;;;;;;4915180;29;20135;-81
2022/01/25 12:19:03;;;;;;;18.08;10.77;;;5.50;96.10;;;;;;4917311;29;20130;-80
2022/01/25 12:22:01;;;;;;;17.05;9.73;;;5.50;96.30;;;;;;4914765;29;20131;-82
2022/01/25 12:24:33;;;;;;;16.17;9.48;;;5.70;95.90;;;;;;4915798;29;20056;-81
2022/01/25 12:27:08;;;;;;;17.02;9.73;;;5.80;95.60;;;;;;4919286;29;20071;-82
2022/01/25 12:29:39;;;;;;;;;;;5.90;95.30;;;;;;4919402;29;20138;-81
2022/01/25 12:32:28;;;;;;;16.85;9.90;;;6.10;95.00;;;;;;4918780;29;20011;-82
2022/01/25 12:35:10;;;;;;;17.50;10.13;;;6.30;94.70;;;;;;4918630;29;20056;-82
2022/01/25 12:38:06;;;;;;;17.80;10.05;;;6.50;94.60;;;;;;4918510;29;20052;-82
2022/01/25 12:40:57;;;;;;;16.23;9.98;;;6.60;94.10;;;;;;4918394;29;20416;-81
2022/01/25 12:43:27;;;;;;;16.67;9.48;;;6.70;93.90;;;;;;4918284;29;20048;-82
2022/01/25 12:46:00;;;;;;;16.52;10.23;;;7.00;93.30;;;;;;4918499;29;20111;-83
2022/01/25 12:48:33;;;;;;;17.35;10.13;;;7.10;92.80;;;;;;4918478;29;20566;-80
2022/01/25 12:51:05;;;;;;;17.92;10.75;;;7.30;92.50;;;;;;4917946;29;20094;-82
2022/01/25 12:53:36;;;;;;;17.77;10.40;;;7.40;91.70;;;;;;4918535;29;20054;-82
2022/01/25 12:56:09;;;;;;;16.55;10.45;;;7.60;91.50;;;;;;4917959;29;20143;-79
2022/01/25 12:58:39;;;;;;;15.75;9.85;;;7.70;91.10;;;;;;4918310;29;20107;-79
2022/01/25 13:01:11;;;;;;;17.08;10.82;;;7.90;90.90;;;;;;4918412;29;20090;-80
2022/01/25 13:03:43;;;;;;;17.42;11.27;;;8.10;90.40;;;;;;4918426;29;20135;-81
2022/01/25 13:06:15;;;;;;;18.15;11.05;;;8.20;90.00;;;;;;4918635;29;20406;-80
2022/01/25 13:08:49;;;;;;;18.30;10.88;;;8.40;89.10;;;;;;4918318;29;20052;-81
2022/01/25 13:11:30;;;;;;;18.87;11.40;;;8.60;88.50;;;;;;4918067;29;20139;-81
2022/01/25 13:14:16;;;;;;;17.55;11.05;;;8.70;85.30;;;;;;4917835;29;20300;-79
2022/01/25 13:16:53;;;;;;;15.75;10.45;;;8.90;84.70;;;;;;4918408;29;20056;-81
2022/01/25 13:19:25;;;;;;;17.00;10.40;;;9.20;84.00;;;;;;4901107;29;20087;-80
2022/01/25 13:22:00;;;;;;;16.38;11.18;;;9.40;83.00;;;;;;4917898;29;20383;-81
2022/01/25 13:24:33;;;;;;;18.23;11.20;;;9.70;81.60;;;;;;4917269;29;20044;-81
2022/01/25 13:27:10;;;;;;;16.88;11.13;;;10.20;81.90;;;;;;4918217;29;20048;-81
2022/01/25 13:32:30;;;;;;;22.95;14.98;;;12.10;74.50;;;;;;4917831;29;20051;-81
2022/01/25 13:35:15;;;;;;;21.75;14.57;;;14.10;65.30;;;;;;4901204;29;20048;-81
2022/01/25 13:37:50;;;;;;;24.27;15.73;;;16.00;59.00;;;;;;4917933;29;20130;-81
2022/01/25 13:40:23;;;;;;;18.08;11.90;;;17.70;52.60;;;;;;4917790;29;20139;-79
2022/01/25 13:43:08;;;;;;;16.17;11.02;;;19.10;48.40;;;;;;4917988;29;20056;-79
2022/01/25 13:45:46;;;;;;;16.35;11.15;;;20.10;45.50;;;;;;4917689;29;20063;-79
2022/01/25 13:48:15;;;;;;;14.18;10.73;;;21.10;42.60;;;;;;4917420;29;20534;-79
2022/01/25 13:50:44;;;;;;;14.45;10.48;;;22.10;41.10;;;;;;4917298;29;20052;-79
2022/01/25 13:53:12;;;;;;;15.00;9.93;;;23.00;39.60;;;;;;4917732;29;20131;-80
2022/01/25 13:55:48;;;;;;;14.48;10.00;;;24.00;38.00;;;;;;4917573;29;20131;-82
2022/01/25 13:58:24;;;;;;;13.15;10.25;;;25.10;36.70;;;;;;4917820;29;20048;-80
2022/01/25 14:00:56;;;;;;;13.82;10.55;;;26.20;35.50;;;;;;4917243;29;20054;-80
2022/01/25 14:03:30;;;;;;;14.38;10.13;;;27.00;34.40;;;;;;4917017;29;20127;-79
2022/01/25 14:05:58;;;;;;;14.43;10.57;;;27.90;33.70;;;;;;4917273;29;20083;-79
2022/01/25 14:08:40;;;;;;;13.90;9.77;;;28.60;32.90;;;;;;4917374;29;20143;-80
2022/01/25 14:11:25;;;;;;;14.80;10.45;;;29.30;32.10;;;;;;4917218;29;20576;-81
2022/01/25 14:24:58;;;;;;;12.73;10.18;;;32.60;29.70;;;;;;4902149;29;20402;-81
2022/01/25 14:27:34;;;;;;;13.43;10.13;;;33.10;29.20;;;;;;4916921;29;20076;-82
2022/01/25 14:30:02;;;;;;;13.60;9.93;;;33.60;28.80;;;;;;4917199;29;20056;-81
2022/01/25 14:32:34;;;;;;;12.05;9.82;;;34.20;29.00;;;;;;4917028;29;20420;-81
2022/01/25 14:35:05;;;;;;;12.73;10.18;;;34.70;42.30;;;;;;4916519;29;20056;-81
2022/01/25 14:37:33;;;;;;;12.57;9.70;;;34.80;28.00;;;;;;4916419;29;20131;-81
2022/01/25 14:40:10;;;;;;;12.65;9.40;;;35.00;28.00;;;;;;4916648;29;20144;-81
2022/01/25 14:42:39;;;;;;;13.77;10.27;;;35.00;27.80;;;;;;4916259;29;20090;-82
2022/01/25 14:45:12;;;;;;;13.00;10.13;;;35.00;27.80;;;;;;4916795;29;20056;-82
2022/01/25 14:47:43;;;;;;;13.52;10.55;;;34.90;27.70;;;;;;4916712;29;20052;-82
2022/01/25 14:50:21;;;;;;;13.20;9.80;;;34.80;27.70;;;;;;4916575;29;20054;-83
2022/01/25 14:53:08;;;;;;;14.10;10.13;;;34.60;27.60;;;;;;4916564;29;20139;-82
2022/01/25 14:55:43;;;;;;;13.55;9.90;;;34.10;27.20;;;;;;4916126;29;20142;-80
2022/01/25 14:59:22;;;;;;;13.02;10.00;;;34.00;27.70;;;;;;4916720;29;20404;-81
2022/01/25 15:01:13;;;;;;;13.65;10.05;;;33.80;27.80;;;;;;4913041;29;20537;-83
2022/01/25 15:03:44;;;;;;;13.50;10.25;;;33.50;27.90;;;;;;4915798;29;20048;-79
2022/01/25 15:06:13;;;;;;;14.13;10.73;;;33.30;27.90;;;;;;4915181;29;20127;-80
2022/01/25 15:08:49;;;;;;;13.68;11.02;;;32.90;28.00;;;;;;4915499;29;20056;-83
2022/01/25 15:11:17;;;;;;;14.57;10.73;;;32.50;28.10;;;;;;4915684;29;20152;-83
2022/01/25 15:13:45;;;;;;;15.07;10.38;;;32.10;28.30;;;;;;4916173;29;20062;-82
2022/01/25 15:16:12;;;;;;;15.02;10.63;;;31.80;28.40;;;;;;4915784;29;20044;-83
2022/01/25 15:18:40;;;;;;;14.55;11.50;;;31.40;28.60;;;;;;4907849;29;20145;-82
2022/01/25 15:21:09;;;;;;;15.02;11.20;;;30.90;28.60;;;;;;4895056;29;20084;-84
2022/01/25 15:23:39;;;;;;;13.65;11.00;;;30.40;28.80;;;;;;4880359;29;20104;-86
2022/01/25 15:26:11;;;;;;;16.50;11.90;;;29.90;29.00;;;;;;4899571;29;20063;-83
2022/01/25 15:28:43;;;;;;;15.80;11.43;;;29.30;29.30;;;;;;4892491;29;20502;-86
2022/01/25 15:31:15;;;;;;;17.48;11.85;;;28.60;29.60;;;;;;4896765;29;20053;-83
2022/01/25 15:33:44;;;;;;;16.38;11.95;;;27.80;30.00;;;;;;4908550;29;20052;-80
2022/01/25 15:36:15;;;;;;;14.15;11.18;;;27.10;30.40;;;;;;4915417;29;20127;-81
2022/01/25 15:38:46;;;;;;;15.40;11.77;;;26.20;30.90;;;;;;4915921;29;20111;-80
2022/01/25 15:41:14;;;;;;;15.20;11.45;;;25.50;31.70;;;;;;4911109;29;20076;-85
2022/01/25 15:43:51;;;;;;;15.48;11.65;;;24.70;32.40;;;;;;4904114;29;20161;-83
2022/01/25 15:46:26;;;;;;;18.48;14.20;;;23.90;33.10;;;;;;4914857;29;20139;-79
2022/01/25 15:48:55;;;;;;;19.80;14.50;;;23.00;34.10;;;;;;4899478;29;20494;-84
2022/01/25 15:51:23;;;;;;;20.88;15.48;;;22.00;35.30;;;;;;4898939;29;20140;-83
2022/01/25 15:53:53;;;;;;;20.63;15.65;;;21.10;36.50;;;;;;4900500;29;20402;-84
2022/01/25 15:56:21;;;;;;;20.15;14.75;;;20.10;37.60;;;;;;4911418;29;20147;-85
2022/01/25 15:58:48;;;;;;;22.55;16.17;;;19.00;38.80;;;;;;4900425;29;20065;-84
2022/01/25 16:01:16;;;;;;;23.42;16.35;;;17.70;40.30;;;;;;4902230;29;20067;-84
2022/01/25 16:03:43;;;;;;;21.48;16.13;;;16.60;42.10;;;;;;4900649;29;20060;-85
2022/01/25 16:06:11;;;;;;;22.63;16.63;;;15.50;43.90;;;;;;4900883;29;20123;-84
2022/01/25 16:08:40;;;;;;;23.98;16.58;;;14.60;45.60;;;;;;4897036;29;20127;-83
2022/01/25 16:11:14;;;;;;;25.02;16.63;;;13.80;47.40;;;;;;4910892;29;20048;-84
2022/01/25 16:13:42;;;;;;;23.73;17.25;;;13.00;49.00;;;;;;4907067;29;20052;-84
2022/01/25 16:16:11;;;;;;;27.33;17.67;;;12.40;50.60;;;;;;4911101;29;20143;-83
2022/01/25 16:18:41;;;;;;;28.08;17.33;;;11.80;52.00;;;;;;4917621;29;20482;-83
2022/01/25 16:21:11;;;;;;;24.75;17.08;;;11.30;53.40;;;;;;4918409;29;20138;-83
2022/01/25 16:23:40;;;;;;;24.90;17.40;;;10.80;54.70;;;;;;4919134;29;20052;-82
2022/01/25 16:26:13;;;;;;;28.40;18.50;;;10.30;55.90;;;;;;4917737;29;20096;-82
2022/01/25 16:28:41;;;;;;;29.98;19.63;;;9.90;57.10;;;;;;4893788;29;20051;-81
2022/01/25 16:31:17;;;;;;;30.20;19.08;;;9.50;58.30;;;;;;4913861;29;20143;-81
2022/01/25 16:33:45;;;;;;;30.13;19.48;;;9.20;59.90;;;;;;4917904;29;20052;-82
2022/01/25 16:36:16;;;;;;;35.80;20.65;;;8.80;61.20;;;;;;4907365;29;20092;-84
2022/01/25 16:38:44;;;;;;;34.70;20.70;;;8.50;62.70;;;;;;4901773;29;20538;-86
2022/01/25 16:41:13;;;;;;;34.15;20.98;;;8.20;64.40;;;;;;4898619;29;20468;-86
2022/01/25 16:43:41;;;;;;;33.80;20.73;;;7.90;65.30;;;;;;4894509;29;20159;-85
2022/01/25 16:46:09;;;;;;;32.40;19.90;;;7.70;66.60;;;;;;4900729;29;20415;-85
2022/01/25 16:48:36;;;;;;;32.33;19.73;;;7.50;68.40;;;;;;4899871;29;20550;-87
2022/01/25 16:51:04;;;;;;;35.47;19.95;;;7.40;70.50;;;;;;4899944;29;20092;-85
2022/01/25 16:53:31;;;;;;;32.83;19.27;;;7.20;73.20;;;;;;4897254;29;20083;-85
2022/01/25 16:55:58;;;;;;;30.25;18.20;;;7.10;75.70;;;;;;4900115;29;20486;-86
2022/01/25 16:58:27;;;;;;;32.05;18.75;;;6.90;79.40;;;;;;4899477;29;20139;-86
2022/01/25 17:00:59;;;;;;;35.75;20.00;;;6.80;83.30;;;;;;4900154;29;20060;-85
2022/01/25 17:03:26;;;;;;;33.53;19.35;;;6.70;86.50;;;;;;4900186;29;20063;-85
2022/01/25 17:05:53;;;;;;;31.13;18.95;;;6.60;90.20;;;;;;4914714;29;20055;-86
2022/01/25 17:08:22;;;;;;;33.72;19.10;;;6.50;90.50;;;;;;4881143;29;20056;-86
2022/01/25 17:10:50;;;;;;;35.10;20.73;;;6.40;91.30;;;;;;4887714;29;20562;-87
2022/01/25 17:13:21;;;;;;;37.67;21.48;;;6.40;92.00;;;;;;4899947;29;20091;-87
2022/01/25 17:15:53;;;;;;;34.40;20.92;;;6.30;92.70;;;;;;4908531;29;20052;-85
2022/01/25 17:18:20;;;;;;;39.90;22.60;;;6.20;93.20;;;;;;4904763;29;20064;-86
2022/01/25 17:20:48;;;;;;;37.78;22.13;;;6.10;93.70;;;;;;4899826;29;20136;-86
2022/01/25 17:23:15;;;;;;;36.42;21.23;;;6.00;94.00;;;;;;4909308;29;20052;-82
2022/01/25 17:25:43;;;;;;;39.97;21.88;;;6.00;94.30;;;;;;4917661;29;20127;-84
2022/01/25 17:28:11;;;;;;;42.58;23.52;;;5.90;94.60;;;;;;4917374;29;20044;-83
2022/01/25 17:30:39;;;;;;;38.47;22.00;;;5.80;94.80;;;;;;4917166;29;20107;-83
2022/01/25 17:33:08;;;;;;;36.67;20.60;;;5.70;95.10;;;;;;4917670;29;20055;-84
2022/01/25 17:35:38;;;;;;;33.22;20.27;;;5.70;94.90;;;;;;4918285;29;20084;-83
2022/01/25 17:38:05;;;;;;;37.00;20.95;;;5.60;94.90;;;;;;4918618;29;20143;-82
2022/01/25 17:40:36;;;;;;;35.38;20.75;;;5.50;95.10;;;;;;4917567;29;20546;-84
2022/01/25 17:43:03;;;;;;;35.80;20.50;;;5.40;95.10;;;;;;4917453;29;20040;-82
2022/01/25 17:45:30;;;;;;;35.75;20.60;;;5.30;95.30;;;;;;4902996;29;20044;-82
2022/01/25 17:47:58;;;;;;;34.47;19.40;;;5.20;95.50;;;;;;4917169;29;20135;-83
2022/01/25 17:50:29;;;;;;;36.58;19.83;;;5.00;95.60;;;;;;4917019;29;20067;-83
2022/01/25 17:52:56;;;;;;;38.40;21.48;;;4.90;95.70;;;;;;4917393;29;20472;-83
2022/01/25 17:55:24;;;;;;;38.25;21.77;;;4.80;96.30;;;;;;4917019;29;20134;-83
2022/01/25 17:57:51;;;;;;;36.53;19.48;;;4.70;96.50;;;;;;4914604;29;20083;-83
2022/01/25 18:00:20;;;;;;;33.88;18.42;;;4.60;96.50;;;;;;4901143;29;20087;-82